createdAt,value
2023-03-11T00:01:09.912Z,11.70
2023-03-11T00:03:44.534Z,11.20
2023-03-11T00:06:14.679Z,12.00
2023-03-11T00:08:42.166Z,11.10
2023-03-11T00:11:09.480Z,11.70
2023-03-11T00:13:40.953Z,12.20
2023-03-11T00:16:08.640Z,11.90
2023-03-11T00:19:15.674Z,11.20
2023-03-11T00:21:51.726Z,9.70
2023-03-11T00:24:27.831Z,13.60
2023-03-11T00:27:00.114Z,11.90
2023-03-11T00:29:38.276Z,11.20
2023-03-11T00:32:05.156Z,11.40
2023-03-11T00:34:32.770Z,10.10
2023-03-11T00:36:59.795Z,11.70
2023-03-11T00:39:29.360Z,12.10
2023-03-11T00:42:03.748Z,11.70
2023-03-11T00:44:33.256Z,12.20
2023-03-11T00:47:00.680Z,11.70
2023-03-11T00:49:27.916Z,11.80
2023-03-11T00:51:54.812Z,11.40
2023-03-11T00:54:22.165Z,13.10
2023-03-11T00:56:56.553Z,11.60
2023-03-11T00:59:34.032Z,11.70
2023-03-11T01:02:05.516Z,11.50
2023-03-11T01:04:57.953Z,11.50
2023-03-11T01:07:25.258Z,10.10
2023-03-11T01:09:54.571Z,9.90
2023-03-11T01:12:41.058Z,9.70
2023-03-11T01:15:31.193Z,8.80
2023-03-11T01:18:04.362Z,9.00
2023-03-11T01:20:31.664Z,7.00
2023-03-11T01:23:06.230Z,7.40
2023-03-11T01:25:33.329Z,5.60
2023-03-11T01:28:00.419Z,6.70
2023-03-11T01:30:30.914Z,5.80
2023-03-11T01:32:58.608Z,5.20
2023-03-11T01:35:58.462Z,4.70
2023-03-11T01:38:25.749Z,5.20
2023-03-11T01:40:53.111Z,5.50
2023-03-11T01:43:54.644Z,4.60
2023-03-11T01:46:24.614Z,5.50
2023-03-11T01:48:57.028Z,5.10
2023-03-11T01:51:46.365Z,4.10
2023-03-11T01:54:39.065Z,4.10
2023-03-11T01:57:09.859Z,4.60
2023-03-11T01:59:41.846Z,4.10
2023-03-11T02:02:40.695Z,2.80
2023-03-11T02:05:08.356Z,3.90
2023-03-11T02:07:49.596Z,3.80
2023-03-11T02:10:20.516Z,3.50
2023-03-11T02:12:50.465Z,3.00
2023-03-11T02:15:20.999Z,4.10
2023-03-11T02:17:47.897Z,4.40
2023-03-11T02:20:38.644Z,4.10
2023-03-11T02:23:09.572Z,3.90
2023-03-11T02:26:06.012Z,4.40
2023-03-11T02:28:38.791Z,3.80
2023-03-11T02:31:06.314Z,3.60
2023-03-11T02:33:37.245Z,3.90
2023-03-11T02:36:04.849Z,4.10
2023-03-11T02:38:31.942Z,3.90
2023-03-11T02:41:04.619Z,3.50
2023-03-11T02:43:46.100Z,4.10
2023-03-11T02:46:17.477Z,4.20
2023-03-11T02:48:45.230Z,3.50
2023-03-11T02:51:12.310Z,4.10
2023-03-11T02:53:53.168Z,3.70
2023-03-11T02:56:20.779Z,4.70
2023-03-11T02:58:48.274Z,5.20
2023-03-11T03:01:17.708Z,4.20
2023-03-11T03:03:44.784Z,3.70
2023-03-11T03:06:12.373Z,4.50
2023-03-11T03:08:49.307Z,3.90
2023-03-11T03:11:16.653Z,4.50
2023-03-11T03:13:43.595Z,4.20
2023-03-11T03:16:10.747Z,3.90
2023-03-11T03:18:38.524Z,3.80
2023-03-11T03:21:08.990Z,4.20
2023-03-11T03:23:39.070Z,3.90
2023-03-11T03:26:06.701Z,4.70
2023-03-11T03:28:40.867Z,4.10
2023-03-11T03:31:27.737Z,4.10
2023-03-11T03:33:57.295Z,4.40
2023-03-11T03:36:27.291Z,4.40
2023-03-11T03:38:55.912Z,4.30
2023-03-11T03:41:23.730Z,5.00
2023-03-11T03:43:50.929Z,4.90
2023-03-11T03:46:18.004Z,5.10
2023-03-11T03:48:45.008Z,3.80
2023-03-11T03:51:16.635Z,4.40
2023-03-11T03:53:46.597Z,4.00
2023-03-11T03:56:15.960Z,4.10
2023-03-11T03:58:43.108Z,4.20
2023-03-11T04:01:13.779Z,4.50
2023-03-11T04:03:43.121Z,3.60
2023-03-11T04:06:22.577Z,4.40
2023-03-11T04:08:55.056Z,4.60
2023-03-11T04:11:22.603Z,4.20
2023-03-11T04:13:50.091Z,4.00
2023-03-11T04:16:22.680Z,5.00
2023-03-11T04:18:51.895Z,6.00
2023-03-11T04:21:19.547Z,5.70
2023-03-11T04:23:46.589Z,4.60
2023-03-11T04:26:13.552Z,4.40
2023-03-11T04:28:40.577Z,5.40
2023-03-11T04:31:10.065Z,4.90
2023-03-11T04:33:39.772Z,4.30
2023-03-11T04:36:08.146Z,6.00
2023-03-11T04:38:56.125Z,4.60
2023-03-11T04:41:23.473Z,4.10
2023-03-11T04:43:50.747Z,4.00
2023-03-11T04:46:18.445Z,3.40
2023-03-11T04:48:45.461Z,3.60
2023-03-11T04:51:12.233Z,3.60
2023-03-11T04:53:39.430Z,3.50
2023-03-11T04:56:06.540Z,3.10
2023-03-11T04:58:40.551Z,3.20
2023-03-11T05:01:07.823Z,3.20
2023-03-11T05:03:34.915Z,2.60
2023-03-11T05:06:02.017Z,2.90
2023-03-11T05:08:29.216Z,2.70
2023-03-11T05:10:56.509Z,2.80
2023-03-11T05:13:29.377Z,2.70
2023-03-11T05:15:56.421Z,2.30
2023-03-11T05:18:23.490Z,2.90
2023-03-11T05:20:50.473Z,2.20
2023-03-11T05:23:17.398Z,2.60
2023-03-11T05:25:46.677Z,2.60
2023-03-11T05:28:28.709Z,2.30
2023-03-11T05:30:56.115Z,2.30
2023-03-11T05:33:23.125Z,2.20
2023-03-11T05:35:51.929Z,2.00
2023-03-11T05:38:18.983Z,2.40
2023-03-11T05:40:46.045Z,2.90
2023-03-11T05:43:13.527Z,2.60
2023-03-11T05:45:40.596Z,4.40
2023-03-11T05:48:07.634Z,4.40
2023-03-11T05:50:34.641Z,3.00
2023-03-11T05:53:02.162Z,2.60
2023-03-11T05:55:29.109Z,2.40
2023-03-11T05:57:56.268Z,2.20
2023-03-11T06:00:23.633Z,2.90
2023-03-11T06:02:51.001Z,3.00
2023-03-11T06:05:21.141Z,2.80
2023-03-11T06:07:48.097Z,2.30
2023-03-11T06:10:15.229Z,1.90
2023-03-11T06:12:42.205Z,2.10
2023-03-11T06:15:12.376Z,1.90
2023-03-11T06:17:39.511Z,2.90
2023-03-11T06:20:09.354Z,1.80
2023-03-11T06:22:39.045Z,2.00
2023-03-11T06:25:08.001Z,2.00
2023-03-11T06:27:35.339Z,2.40
2023-03-11T06:30:02.578Z,2.00
2023-03-11T06:32:30.205Z,2.00
2023-03-11T06:34:57.253Z,2.00
2023-03-11T06:37:25.585Z,2.00
2023-03-11T06:39:53.443Z,1.70
2023-03-11T06:42:23.906Z,2.00
2023-03-11T06:44:51.216Z,1.80
2023-03-11T06:47:22.838Z,2.00
2023-03-11T06:49:52.714Z,2.10
2023-03-11T06:52:20.096Z,2.00
2023-03-11T06:54:47.130Z,2.10
2023-03-11T06:57:14.167Z,2.20
2023-03-11T06:59:41.276Z,3.40
2023-03-11T07:02:12.846Z,6.60
2023-03-11T07:04:42.248Z,7.80
2023-03-11T07:07:09.670Z,13.20
2023-03-11T07:09:37.011Z,11.70
2023-03-11T07:12:06.666Z,9.80
2023-03-11T07:14:33.722Z,5.20
2023-03-11T07:17:02.794Z,11.40
2023-03-11T07:19:29.938Z,12.20
2023-03-11T07:21:57.340Z,6.90
2023-03-11T07:24:24.357Z,4.80
2023-03-11T07:26:51.467Z,3.50
2023-03-11T07:29:20.078Z,3.50
2023-03-11T07:31:47.088Z,2.70
2023-03-11T07:34:14.225Z,2.10
2023-03-11T07:36:42.386Z,1.80
2023-03-11T07:39:14.909Z,1.50
2023-03-11T07:41:42.305Z,1.90
2023-03-11T07:44:14.649Z,1.90
2023-03-11T07:46:42.195Z,2.00
2023-03-11T07:49:11.953Z,2.10
2023-03-11T07:51:41.039Z,2.10
2023-03-11T07:54:09.585Z,2.30
2023-03-11T07:56:38.632Z,2.50
2023-03-11T07:59:06.101Z,3.10
2023-03-11T08:01:41.274Z,2.20
2023-03-11T08:04:12.894Z,2.40
2023-03-11T08:06:42.978Z,2.20
2023-03-11T08:09:16.232Z,2.10
2023-03-11T08:11:43.464Z,1.60
2023-03-11T08:14:10.556Z,1.70
2023-03-11T08:16:40.913Z,1.90
2023-03-11T08:19:11.052Z,3.00
2023-03-11T08:21:40.433Z,4.00
2023-03-11T08:24:07.489Z,2.60
2023-03-11T08:26:34.668Z,2.70
2023-03-11T08:29:01.293Z,2.70
2023-03-11T08:31:31.311Z,2.00
2023-03-11T08:34:01.573Z,2.60
2023-03-11T08:36:28.940Z,2.50
2023-03-11T08:38:56.017Z,2.50
2023-03-11T08:41:27.366Z,2.60
2023-03-11T08:43:54.731Z,2.00
2023-03-11T08:46:31.565Z,2.00
2023-03-11T08:49:01.161Z,1.80
2023-03-11T08:51:30.089Z,4.50
2023-03-11T08:53:57.523Z,3.80
2023-03-11T08:56:24.781Z,13.50
2023-03-11T08:58:55.129Z,17.30
2023-03-11T09:01:23.713Z,22.10
2023-03-11T09:03:53.717Z,11.80
2023-03-11T09:06:24.559Z,11.00
2023-03-11T09:08:52.102Z,16.30
2023-03-11T09:11:19.236Z,21.50
2023-03-11T09:13:46.134Z,12.60
2023-03-11T09:16:15.730Z,14.40
2023-03-11T09:18:42.479Z,5.80
2023-03-11T09:21:10.049Z,3.30
2023-03-11T09:23:37.605Z,2.30
2023-03-11T09:26:05.007Z,2.60
2023-03-11T09:28:37.518Z,2.20
2023-03-11T09:31:04.873Z,2.40
2023-03-11T09:33:46.164Z,2.10
2023-03-11T09:36:19.126Z,2.10
2023-03-11T09:38:46.666Z,2.00
2023-03-11T09:41:30.714Z,2.70
2023-03-11T09:44:06.097Z,2.20
2023-03-11T09:46:48.450Z,2.30
2023-03-11T09:50:03.627Z,1.60
2023-03-11T09:53:19.090Z,2.40
2023-03-11T09:56:00.249Z,2.80
2023-03-11T09:58:45.312Z,2.60
2023-03-11T10:01:26.247Z,2.50
2023-03-11T10:03:56.839Z,2.00
2023-03-11T10:06:26.038Z,2.10
2023-03-11T10:08:58.498Z,2.10
2023-03-11T10:11:34.942Z,2.20
2023-03-11T10:14:32.416Z,1.90
2023-03-11T10:17:17.784Z,1.80
2023-03-11T10:20:04.997Z,1.90
2023-03-11T10:22:41.939Z,1.80
2023-03-11T10:25:16.942Z,2.30
2023-03-11T10:27:54.118Z,1.90
2023-03-11T10:30:29.009Z,1.50
2023-03-11T10:33:10.850Z,2.40
2023-03-11T10:35:41.342Z,1.70
2023-03-11T10:38:12.448Z,1.50
2023-03-11T10:40:46.936Z,5.90
2023-03-11T10:43:18.833Z,18.40
2023-03-11T10:45:48.959Z,4.40
2023-03-11T10:48:19.941Z,9.20
2023-03-11T10:51:01.907Z,4.90
2023-03-11T10:53:29.154Z,2.40
2023-03-11T10:55:59.050Z,2.70
2023-03-11T10:58:28.656Z,1.80
2023-03-11T11:01:08.226Z,4.80
2023-03-11T11:03:36.418Z,2.20
2023-03-11T11:06:06.488Z,1.90
2023-03-11T11:08:34.372Z,1.40
2023-03-11T11:11:02.875Z,2.00
2023-03-11T11:13:34.789Z,1.40
2023-03-11T11:16:02.803Z,1.40
2023-03-11T11:18:49.465Z,2.30
2023-03-11T11:21:28.906Z,13.70
2023-03-11T11:24:10.234Z,7.60
2023-03-11T11:26:37.381Z,5.40
2023-03-11T11:29:10.407Z,5.40
2023-03-11T11:31:42.548Z,3.10
2023-03-11T11:34:30.026Z,1.70
2023-03-11T11:36:59.192Z,2.20
2023-03-11T11:39:29.041Z,20.40
2023-03-11T11:41:57.116Z,3.50
2023-03-11T11:44:33.793Z,1.50
2023-03-11T11:47:17.953Z,1.50
2023-03-11T11:49:56.097Z,1.50
2023-03-11T11:52:27.527Z,1.30
2023-03-11T11:55:20.541Z,1.60
2023-03-11T11:57:47.993Z,1.40
2023-03-11T12:00:21.032Z,1.20
2023-03-11T12:03:19.138Z,1.40
2023-03-11T12:05:58.067Z,1.40
2023-03-11T12:08:51.179Z,1.30
2023-03-11T12:11:32.709Z,1.10
2023-03-11T12:14:13.885Z,1.50
2023-03-11T12:16:55.879Z,1.30
2023-03-11T12:19:37.431Z,1.10
2023-03-11T12:22:16.294Z,1.10
2023-03-11T12:24:43.844Z,1.50
2023-03-11T12:27:22.172Z,1.50
2023-03-11T12:30:03.115Z,1.20
2023-03-11T12:32:38.255Z,1.20
2023-03-11T12:35:17.307Z,1.30
2023-03-11T12:37:43.986Z,1.50
2023-03-11T12:40:45.024Z,1.20
2023-03-11T12:43:36.131Z,1.40
2023-03-11T12:46:05.206Z,1.30
2023-03-11T12:48:51.578Z,1.40
2023-03-11T12:51:27.874Z,1.20
2023-03-11T12:53:55.818Z,1.20
2023-03-11T12:56:44.359Z,1.20
2023-03-11T12:59:23.749Z,1.20
2023-03-11T13:02:06.385Z,1.40
2023-03-11T13:04:43.364Z,1.20
2023-03-11T13:07:22.469Z,1.40
2023-03-11T13:10:07.647Z,1.60
2023-03-11T13:12:51.851Z,1.30
2023-03-11T13:15:18.680Z,1.20
2023-03-11T13:18:18.023Z,1.20
2023-03-11T13:20:50.323Z,1.20
2023-03-11T13:23:31.473Z,1.10
2023-03-11T13:26:10.001Z,1.10
2023-03-11T13:28:52.896Z,1.40
2023-03-11T13:31:33.589Z,1.20
2023-03-11T13:34:17.388Z,1.20
2023-03-11T13:36:50.697Z,1.10
2023-03-11T13:39:45.435Z,1.10
2023-03-11T13:42:34.571Z,1.40
2023-03-11T13:45:01.568Z,0.90
2023-03-11T13:47:30.504Z,1.10
2023-03-11T13:50:07.001Z,1.10
2023-03-11T13:52:38.670Z,1.30
2023-03-11T13:55:17.628Z,1.20
2023-03-11T13:57:55.433Z,1.10
2023-03-11T14:00:31.013Z,0.80
2023-03-11T14:03:01.854Z,0.90
2023-03-11T14:05:35.016Z,0.90
2023-03-11T14:08:17.405Z,0.90
2023-03-11T14:10:55.525Z,0.90
2023-03-11T14:13:23.700Z,0.90
2023-03-11T14:16:26.578Z,0.90
2023-03-11T14:19:14.105Z,0.90
2023-03-11T14:21:45.498Z,1.00
2023-03-11T14:24:23.042Z,1.00
2023-03-11T14:26:55.139Z,0.90
2023-03-11T14:29:33.976Z,0.90
2023-03-11T14:32:01.336Z,0.80
2023-03-11T14:34:29.997Z,1.00
2023-03-11T14:37:00.804Z,0.80
2023-03-11T14:39:36.756Z,1.00
2023-03-11T14:42:03.469Z,0.80
2023-03-11T14:44:33.302Z,1.00
2023-03-11T14:47:06.912Z,0.80
2023-03-11T14:49:33.779Z,0.90
2023-03-11T14:52:12.289Z,0.80
2023-03-11T14:54:39.615Z,0.60
2023-03-11T14:57:29.422Z,0.90
2023-03-11T14:59:57.359Z,0.80
2023-03-11T15:02:39.478Z,0.70
2023-03-11T15:05:33.307Z,0.80
2023-03-11T15:08:02.958Z,0.80
2023-03-11T15:10:29.847Z,0.90
2023-03-11T15:13:17.386Z,0.80
2023-03-11T15:15:49.034Z,1.00
2023-03-11T15:18:29.268Z,0.90
2023-03-11T15:21:14.741Z,0.90
2023-03-11T15:23:55.239Z,1.00
2023-03-11T15:26:27.890Z,0.80
2023-03-11T15:29:14.033Z,0.90
2023-03-11T15:31:46.468Z,1.00
2023-03-11T15:34:19.207Z,0.80
2023-03-11T15:36:49.212Z,1.10
2023-03-11T15:39:32.257Z,0.70
2023-03-11T15:42:08.431Z,1.00
2023-03-11T15:44:48.864Z,0.70
2023-03-11T15:47:21.672Z,0.70
2023-03-11T15:49:49.184Z,1.00
2023-03-11T15:52:16.792Z,0.80
2023-03-11T15:54:54.948Z,0.80
2023-03-11T15:57:27.485Z,0.70
2023-03-11T15:59:56.896Z,1.00
2023-03-11T16:02:29.382Z,0.80
2023-03-11T16:04:56.998Z,1.00
2023-03-11T16:07:36.789Z,0.70
2023-03-11T16:10:07.617Z,0.70
2023-03-11T16:12:36.839Z,0.90
2023-03-11T16:15:07.654Z,0.80
2023-03-11T16:17:48.329Z,1.00
2023-03-11T16:20:16.370Z,1.30
2023-03-11T16:22:46.060Z,0.80
2023-03-11T16:25:20.916Z,0.90
2023-03-11T16:27:49.822Z,0.90
2023-03-11T16:30:16.822Z,0.90
2023-03-11T16:32:46.286Z,0.80
2023-03-11T16:35:13.120Z,1.10
2023-03-11T16:37:42.324Z,1.00
2023-03-11T16:40:17.122Z,0.80
2023-03-11T16:42:44.101Z,0.90
2023-03-11T16:45:13.768Z,1.00
2023-03-11T16:47:40.511Z,0.80
2023-03-11T16:50:08.183Z,0.70
2023-03-11T16:52:35.127Z,1.10
2023-03-11T16:55:02.038Z,1.10
2023-03-11T16:57:28.926Z,0.90
2023-03-11T16:59:55.574Z,1.30
2023-03-11T17:02:25.642Z,0.70
2023-03-11T17:04:52.816Z,1.00
2023-03-11T17:07:19.630Z,1.30
2023-03-11T17:09:46.354Z,1.00
2023-03-11T17:12:16.150Z,1.10
2023-03-11T17:14:43.048Z,1.10
2023-03-11T17:17:09.940Z,1.00
2023-03-11T17:19:37.143Z,0.90
2023-03-11T17:22:06.163Z,1.10
2023-03-11T17:24:33.214Z,1.00
2023-03-11T17:27:00.140Z,1.10
2023-03-11T17:29:27.194Z,1.20
2023-03-11T17:31:54.027Z,1.20
2023-03-11T17:34:21.431Z,1.40
2023-03-11T17:36:48.322Z,1.30
2023-03-11T17:39:15.364Z,1.70
2023-03-11T17:41:42.175Z,1.50
2023-03-11T17:44:10.079Z,1.90
2023-03-11T17:46:39.157Z,1.60
2023-03-11T17:49:06.106Z,2.60
2023-03-11T17:51:37.249Z,5.20
2023-03-11T17:54:05.161Z,4.20
2023-03-11T17:56:34.940Z,4.20
2023-03-11T17:59:01.883Z,7.40
2023-03-11T18:01:29.727Z,3.30
2023-03-11T18:03:58.980Z,5.00
2023-03-11T18:06:25.807Z,7.20
2023-03-11T18:08:52.698Z,4.40
2023-03-11T18:11:22.380Z,3.30
2023-03-11T18:13:50.085Z,5.60
2023-03-11T18:16:22.368Z,3.90
2023-03-11T18:18:49.794Z,4.10
2023-03-11T18:21:22.823Z,8.20
2023-03-11T18:23:51.871Z,5.30
2023-03-11T18:26:22.208Z,5.10
2023-03-11T18:28:48.939Z,4.20
2023-03-11T18:31:18.141Z,4.00
2023-03-11T18:33:50.933Z,2.20
2023-03-11T18:36:28.097Z,2.20
2023-03-11T18:38:57.354Z,3.40
2023-03-11T18:41:27.784Z,3.10
2023-03-11T18:43:57.471Z,2.90
2023-03-11T18:46:31.672Z,5.50
2023-03-11T18:48:59.904Z,2.80
2023-03-11T18:51:28.796Z,2.10
2023-03-11T18:53:55.876Z,2.00
2023-03-11T18:56:22.712Z,2.30
2023-03-11T18:58:49.248Z,3.00
2023-03-11T19:01:23.184Z,2.70
2023-03-11T19:03:53.319Z,2.50
2023-03-11T19:06:21.324Z,4.20
2023-03-11T19:08:50.643Z,6.50
2023-03-11T19:11:22.540Z,3.10
2023-03-11T19:13:49.537Z,2.70
2023-03-11T19:16:19.732Z,1.50
2023-03-11T19:18:46.888Z,1.90
2023-03-11T19:21:16.500Z,1.30
2023-03-11T19:23:44.854Z,1.70
2023-03-11T19:26:11.689Z,2.70
2023-03-11T19:28:38.449Z,1.80
2023-03-11T19:31:06.426Z,1.50
2023-03-11T19:33:33.309Z,1.50
2023-03-11T19:36:02.803Z,2.10
2023-03-11T19:38:30.695Z,4.00
2023-03-11T19:41:18.400Z,3.30
2023-03-11T19:43:46.731Z,3.00
2023-03-11T19:46:16.189Z,1.70
2023-03-11T19:48:43.032Z,1.80
2023-03-11T19:51:11.904Z,1.80
2023-03-11T19:53:43.522Z,1.70
2023-03-11T19:56:10.630Z,2.00
2023-03-11T19:58:37.632Z,1.60
2023-03-11T20:01:04.989Z,1.70
2023-03-11T20:03:32.025Z,1.60
2023-03-11T20:06:04.739Z,3.10
2023-03-11T20:08:36.422Z,3.40
2023-03-11T20:11:07.210Z,4.10
2023-03-11T20:13:36.649Z,3.80
2023-03-11T20:16:07.575Z,4.10
2023-03-11T20:18:34.639Z,2.30
2023-03-11T20:21:08.672Z,2.30
2023-03-11T20:23:36.177Z,2.00
2023-03-11T20:26:08.759Z,2.40
2023-03-11T20:28:35.702Z,1.80
2023-03-11T20:31:16.440Z,1.90
2023-03-11T20:33:43.550Z,1.90
2023-03-11T20:36:13.985Z,2.20
2023-03-11T20:38:41.873Z,2.50
2023-03-11T20:41:09.932Z,1.90
2023-03-11T20:43:40.586Z,2.50
2023-03-11T20:46:09.641Z,2.40
2023-03-11T20:48:36.745Z,1.90
2023-03-11T20:51:05.971Z,1.90
2023-03-11T20:53:33.550Z,1.60
2023-03-11T20:56:09.658Z,1.90
2023-03-11T20:58:36.975Z,1.90
2023-03-11T21:01:29.772Z,2.00
2023-03-11T21:03:59.419Z,2.00
2023-03-11T21:06:32.305Z,1.90
2023-03-11T21:09:01.332Z,1.90
2023-03-11T21:11:28.670Z,2.00
2023-03-11T21:13:58.087Z,2.10
2023-03-11T21:16:26.806Z,1.80
2023-03-11T21:18:57.228Z,1.80
2023-03-11T21:21:24.504Z,1.60
2023-03-11T21:23:51.136Z,2.00
2023-03-11T21:26:20.381Z,1.80
2023-03-11T21:28:47.711Z,1.90
2023-03-11T21:31:33.508Z,1.90
2023-03-11T21:34:01.212Z,2.10
2023-03-11T21:36:29.514Z,3.30
2023-03-11T21:38:56.184Z,3.80
2023-03-11T21:41:25.267Z,3.60
2023-03-11T21:43:56.554Z,4.00
2023-03-11T21:46:27.561Z,5.60
2023-03-11T21:48:54.583Z,4.40
2023-03-11T21:51:22.389Z,3.60
2023-03-11T21:53:49.493Z,5.30
2023-03-11T21:56:16.679Z,3.40
2023-03-11T21:58:43.566Z,3.60
2023-03-11T22:01:11.386Z,3.00
2023-03-11T22:03:38.684Z,4.00
2023-03-11T22:06:08.197Z,3.00
2023-03-11T22:08:35.273Z,2.30
2023-03-11T22:11:03.054Z,2.00
2023-03-11T22:13:37.249Z,2.30
2023-03-11T22:16:07.516Z,2.40
2023-03-11T22:18:34.590Z,4.40
2023-03-11T22:21:01.657Z,4.10
2023-03-11T22:23:28.759Z,1.90
2023-03-11T22:25:55.675Z,1.80
2023-03-11T22:28:27.564Z,1.70
2023-03-11T22:30:54.696Z,2.00
2023-03-11T22:33:21.229Z,2.10
2023-03-11T22:35:55.966Z,1.60
2023-03-11T22:38:23.694Z,1.80
2023-03-11T22:40:50.610Z,1.90
2023-03-11T22:43:17.313Z,2.10
2023-03-11T22:45:45.267Z,2.00
2023-03-11T22:48:12.146Z,2.00
2023-03-11T22:50:44.301Z,2.20
2023-03-11T22:53:13.502Z,2.40
2023-03-11T22:55:47.205Z,2.40
2023-03-11T22:58:13.931Z,2.50
2023-03-11T23:00:43.213Z,2.40
2023-03-11T23:03:11.959Z,2.40
2023-03-11T23:05:42.700Z,2.40
2023-03-11T23:08:11.305Z,2.70
2023-03-11T23:10:42.019Z,2.80
2023-03-11T23:13:09.347Z,2.30
2023-03-11T23:15:36.807Z,2.60
2023-03-11T23:18:07.534Z,2.40
2023-03-11T23:20:36.689Z,2.60
2023-03-11T23:23:04.280Z,2.10
2023-03-11T23:25:34.562Z,2.20
2023-03-11T23:28:03.875Z,1.90
2023-03-11T23:30:32.123Z,1.80
2023-03-11T23:33:03.040Z,1.90
2023-03-11T23:35:30.475Z,1.70
2023-03-11T23:37:57.322Z,2.00
2023-03-11T23:40:27.821Z,2.00
2023-03-11T23:42:57.686Z,1.80
2023-03-11T23:45:24.605Z,2.30
2023-03-11T23:47:51.804Z,1.70
2023-03-11T23:50:21.290Z,1.80
2023-03-11T23:52:48.048Z,1.70
2023-03-11T23:55:15.261Z,1.50
2023-03-11T23:57:41.979Z,1.80
